Time;durP1;ratioP1;P1;durP2;ratioP2;P2;SDS_P1;SDS_P2;PMS_P1;PMS_P2;Temp;Humidity;BMP_temperature;BMP_pressure;BME280_temperature;BME280_humidity;BME280_pressure;Samples;Min_cycle;Max_cycle;Signal;HPM_P1;HPM_P2
2021/06/18 00:02:01;;;;;;;9.88;6.03;;;;;;;20.68;81.72;95687.41;4373072;32;20527;-73
2021/06/18 00:04:26;;;;;;;8.70;5.70;;;;;;;20.56;82.70;95692.13;4373209;32;20273;-72
2021/06/18 00:06:51;;;;;;;7.77;6.20;;;;;;;20.69;81.85;95683.78;4359444;32;20547;-73
2021/06/18 00:09:17;;;;;;;6.45;5.22;;;;;;;20.65;81.60;95685.91;4359478;32;20239;-72
2021/06/18 00:11:42;;;;;;;7.27;5.63;;;;;;;20.72;81.18;95691.34;4372659;32;20249;-72
2021/06/18 00:14:08;;;;;;;7.22;5.35;;;;;;;20.73;80.58;95691.22;4373303;32;20285;-73
2021/06/18 00:16:35;;;;;;;7.43;5.20;;;;;;;20.67;80.87;95680.50;4358785;32;20243;-73
2021/06/18 00:19:00;;;;;;;7.37;5.85;;;;;;;20.63;81.06;95680.00;4373063;32;20227;-73
2021/06/18 00:21:26;;;;;;;10.47;5.37;;;;;;;20.66;80.91;95676.22;4373196;32;20250;-73
2021/06/18 00:23:52;;;;;;;7.32;5.20;;;;;;;20.73;79.81;95671.97;4373531;32;20226;-73
2021/06/18 00:26:18;;;;;;;6.20;5.28;;;;;;;20.76;79.42;95664.56;4372819;32;20328;-72
2021/06/18 00:28:43;;;;;;;16.77;5.93;;;;;;;20.69;79.51;95671.47;4358929;32;20243;-73
2021/06/18 00:31:08;;;;;;;8.10;5.37;;;;;;;20.62;79.44;95667.00;4372871;32;20307;-72
2021/06/18 00:33:35;;;;;;;6.67;5.77;;;;;;;20.24;81.36;95671.75;4373398;32;20246;-72
2021/06/18 00:36:01;;;;;;;8.13;5.53;;;;;;;20.09;82.05;95675.97;4372594;32;20231;-73
2021/06/18 00:38:26;;;;;;;8.17;5.07;;;;;;;20.10;82.15;95678.47;4372670;32;20357;-73
2021/06/18 00:40:52;;;;;;;6.15;5.22;;;;;;;20.11;82.44;95682.72;4372677;32;20314;-73
2021/06/18 00:43:17;;;;;;;7.17;5.57;;;;;;;20.12;82.82;95680.91;4372762;32;20277;-73
2021/06/18 00:45:42;;;;;;;9.15;5.82;;;;;;;20.06;83.48;95683.19;4372281;32;20566;-72
2021/06/18 00:48:09;;;;;;;7.97;5.40;;;;;;;20.09;83.05;95689.09;4372509;32;20297;-73
2021/06/18 00:50:37;;;;;;;10.30;6.07;;;;;;;20.10;82.82;95688.97;4372569;32;20253;-72
2021/06/18 00:53:03;;;;;;;8.45;5.15;;;;;;;20.16;82.79;95688.31;4372958;32;20255;-73
2021/06/18 00:55:28;;;;;;;7.40;5.50;;;;;;;20.23;81.78;95680.63;4372510;32;20297;-73
2021/06/18 00:57:54;;;;;;;8.40;5.75;;;;;;;20.20;82.20;95687.03;4372713;32;20241;-73
2021/06/18 01:00:21;;;;;;;7.30;5.53;;;;;;;20.37;80.14;95684.47;4358715;32;20601;-73
2021/06/18 01:02:46;;;;;;;7.62;5.22;;;;;;;20.38;79.59;95681.69;4372742;32;20606;-73
2021/06/18 01:05:14;;;;;;;7.03;5.65;;;;;;;20.09;78.70;95682.03;4371664;32;20278;-73
2021/06/18 01:07:52;;;;;;;10.30;6.25;;;;;;;19.83;81.41;95692.56;4358848;32;20981;-72
2021/06/18 01:10:24;;;;;;;8.47;5.90;;;;;;;19.99;81.73;95695.31;4372624;32;20385;-72
2021/06/18 01:12:58;;;;;;;9.45;6.28;;;;;;;20.00;82.62;95696.13;4372426;32;20270;-72
2021/06/18 01:15:32;;;;;;;7.45;6.05;;;;;;;19.74;84.46;95689.09;4372225;32;20239;-73
2021/06/18 01:18:01;;;;;;;8.30;6.05;;;;;;;19.49;86.50;95693.31;4372483;32;20259;-73
2021/06/18 01:20:43;;;;;;;8.00;6.60;;;;;;;19.42;87.24;95691.44;4372419;32;20269;-73
2021/06/18 01:23:21;;;;;;;7.22;5.53;;;;;;;19.48;86.89;95694.28;4358839;32;20285;-73
2021/06/18 01:25:50;;;;;;;8.23;5.57;;;;;;;19.56;83.71;95686.47;4372011;32;20244;-73
2021/06/18 01:28:46;;;;;;;10.02;7.05;;;;;;;19.63;81.98;95684.09;4372077;32;20243;-72
2021/06/18 01:31:16;;;;;;;7.82;5.62;;;;;;;19.31;84.93;95682.81;4370484;32;20622;-72
2021/06/18 01:33:45;;;;;;;12.73;6.45;;;;;;;19.16;86.84;95678.28;4372248;32;20246;-73
2021/06/18 01:36:13;;;;;;;8.95;6.47;;;;;;;19.17;87.00;95678.16;4372405;32;20656;-73
2021/06/18 01:38:44;;;;;;;9.10;5.97;;;;;;;19.22;86.49;95678.50;4371886;32;20262;-73
2021/06/18 01:41:13;;;;;;;8.85;5.70;;;;;;;19.27;85.36;95676.22;4371973;32;20236;-73
2021/06/18 01:43:42;;;;;;;9.90;6.50;;;;;;;19.41;84.73;95684.56;4346687;33;20313;-73
2021/06/18 01:46:10;;;;;;;9.13;6.10;;;;;;;19.44;84.52;95674.56;4357655;33;20274;-73
2021/06/18 01:48:37;;;;;;;14.68;6.70;;;;;;;19.30;85.36;95669.88;4357912;33;20299;-73
2021/06/18 01:51:04;;;;;;;11.02;6.18;;;;;;;19.14;86.29;95669.75;4357777;33;20592;-72
2021/06/18 01:53:31;;;;;;;7.87;5.75;;;;;;;19.10;86.08;95669.22;4357706;33;20229;-73
2021/06/18 01:55:58;;;;;;;19.00;5.93;;;;;;;19.17;85.46;95665.03;4357155;33;20277;-72
2021/06/18 01:58:26;;;;;;;11.63;6.20;;;;;;;19.19;84.94;95667.47;4356744;33;20878;-72
2021/06/18 02:00:53;;;;;;;9.33;6.30;;;;;;;18.91;87.59;95651.84;4357000;33;20584;-73
2021/06/18 02:03:22;;;;;;;7.75;5.87;;;;;;;18.84;88.67;95656.03;4357602;33;20294;-75
2021/06/18 02:05:50;;;;;;;10.57;6.03;;;;;;;18.88;88.63;95657.37;4356674;33;20355;-75
2021/06/18 02:08:16;;;;;;;10.03;6.77;;;;;;;18.96;88.44;95664.50;4357268;33;20217;-73
2021/06/18 02:10:43;;;;;;;12.07;6.73;;;;;;;18.81;88.81;95658.94;4357201;32;20278;-73
2021/06/18 02:13:10;;;;;;;11.07;6.30;;;;;;;18.56;90.93;95661.28;4357097;33;20671;-72
2021/06/18 02:15:37;;;;;;;9.15;6.43;;;;;;;18.53;91.82;95661.56;4356620;33;20232;-72
2021/06/18 02:18:09;;;;;;;8.98;6.22;;;;;;;18.66;91.61;95663.84;4358200;32;20229;-71
2021/06/18 02:20:36;;;;;;;10.00;6.28;;;;;;;18.72;90.71;95667.69;4359813;33;20275;-73
2021/06/18 02:23:02;;;;;;;8.40;6.25;;;;;;;18.36;91.77;95678.94;4360169;32;20671;-72
2021/06/18 02:25:30;;;;;;;8.35;6.32;;;;;;;17.90;94.46;95685.88;4359387;33;20460;-72
2021/06/18 02:27:56;;;;;;;7.80;6.12;;;;;;;18.27;92.86;95673.75;4359599;32;20228;-71
2021/06/18 02:30:22;;;;;;;8.50;5.87;;;;;;;18.39;91.68;95672.56;4359685;33;20802;-71
2021/06/18 02:32:50;;;;;;;6.70;5.50;;;;;;;18.56;90.86;95670.97;4359581;33;20228;-71
2021/06/18 02:35:17;;;;;;;9.57;6.12;;;;;;;18.71;89.78;95674.75;4345405;33;20237;-71
2021/06/18 02:37:43;;;;;;;7.28;5.60;;;;;;;18.76;88.56;95675.16;4359646;32;20225;-70
2021/06/18 02:40:09;;;;;;;10.97;5.80;;;;;;;18.94;87.16;95669.06;4359772;32;20290;-70
2021/06/18 02:42:34;;;;;;;9.65;6.20;;;;;;;19.20;81.76;95683.06;4374556;32;20631;-71
2021/06/18 02:45:00;;;;;;;10.10;6.83;;;;;;;18.94;82.26;95682.19;4373070;32;20272;-70
2021/06/18 02:47:32;;;;;;;9.80;6.87;;;;;;;18.68;87.25;95687.31;4374161;32;20253;-72
2021/06/18 02:50:01;;;;;;;8.60;6.28;;;;;;;18.45;89.08;95684.28;4373176;32;20433;-71
2021/06/18 02:52:39;;;;;;;7.15;6.45;;;;;;;18.57;87.36;95676.03;4374277;32;20219;-70
2021/06/18 02:55:08;;;;;;;10.35;6.40;;;;;;;18.55;89.57;95669.31;4374465;32;20219;-71
2021/06/18 02:57:41;;;;;;;9.40;6.53;;;;;;;18.42;88.66;95677.50;4373815;32;20276;-71
2021/06/18 03:00:09;;;;;;;10.97;7.43;;;;;;;18.31;91.26;95678.53;4374278;32;20594;-71
2021/06/18 03:02:40;;;;;;;10.20;6.90;;;;;;;18.31;91.35;95673.28;4374328;32;20290;-71
2021/06/18 03:05:08;;;;;;;9.95;6.68;;;;;;;18.36;91.11;95673.69;4373998;32;20281;-72
2021/06/18 03:07:37;;;;;;;10.38;6.55;;;;;;;18.33;89.79;95675.78;4373778;32;20236;-70
2021/06/18 03:10:05;;;;;;;9.93;7.03;;;;;;;18.15;91.38;95683.59;4374112;32;20228;-70
2021/06/18 03:12:34;;;;;;;11.83;7.17;;;;;;;18.20;89.94;95686.59;4345409;33;20252;-71
2021/06/18 03:15:03;;;;;;;7.75;6.53;;;;;;;18.51;88.79;95678.44;4345758;33;20225;-71
2021/06/18 03:17:30;;;;;;;14.55;7.15;;;;;;;18.55;88.09;95677.19;4358819;32;20644;-71
2021/06/18 03:19:59;;;;;;;8.48;6.50;;;;;;;18.45;88.74;95685.09;4359053;33;20274;-70
2021/06/18 03:22:27;;;;;;;12.13;7.00;;;;;;;18.31;89.65;95683.78;4358729;33;20252;-71
2021/06/18 03:24:55;;;;;;;8.60;6.83;;;;;;;18.36;88.41;95684.19;4359108;33;20749;-71
2021/06/18 03:27:22;;;;;;;11.63;6.78;;;;;;;18.29;89.78;95683.12;4358423;33;20703;-71
2021/06/18 03:29:51;;;;;;;9.25;6.10;;;;;;;18.09;89.50;95687.59;4358570;32;20221;-71
2021/06/18 03:32:17;;;;;;;8.70;5.80;;;;;;;18.22;88.16;95689.09;4358773;33;20233;-71
2021/06/18 03:34:44;;;;;;;7.40;5.12;;;;;;;18.35;84.94;95692.19;4345299;33;20237;-71
2021/06/18 03:37:10;;;;;;;10.77;4.80;;;;;;;18.74;78.30;95694.63;4355590;32;20297;-71
2021/06/18 03:39:37;;;;;;;6.20;4.22;;;;;;;19.73;69.95;95700.59;4374045;32;20228;-71
2021/06/18 03:42:05;;;;;;;4.62;4.12;;;;;;;20.04;68.46;95692.22;4373350;32;20223;-71
2021/06/18 03:44:31;;;;;;;8.23;4.33;;;;;;;20.12;67.79;95692.25;4373735;32;20285;-71
2021/06/18 03:46:57;;;;;;;4.80;3.65;;;;;;;20.15;67.41;95699.00;4373372;32;20234;-70
2021/06/18 03:49:25;;;;;;;11.90;4.60;;;;;;;20.20;66.67;95694.09;4373591;32;20216;-71
2021/06/18 03:51:51;;;;;;;4.22;3.80;;;;;;;20.36;65.67;95701.22;4373198;32;20269;-71
2021/06/18 03:54:17;;;;;;;6.68;4.00;;;;;;;20.40;65.74;95698.12;4373302;32;20273;-70
2021/06/18 03:56:47;;;;;;;6.72;3.90;;;;;;;20.42;65.70;95698.78;4373221;32;20273;-71
2021/06/18 03:59:15;;;;;;;6.35;3.60;;;;;;;20.59;64.16;95694.44;4372169;32;20253;-70
2021/06/18 04:01:43;;;;;;;5.68;4.07;;;;;;;20.72;63.37;95684.28;4373500;32;20222;-71
2021/06/18 04:04:10;;;;;;;6.60;3.65;;;;;;;20.70;64.01;95681.00;4371919;32;20263;-70
2021/06/18 04:06:37;;;;;;;14.05;4.32;;;;;;;20.80;63.06;95683.47;4372800;32;20253;-72
2021/06/18 04:09:02;;;;;;;6.07;3.45;;;;;;;20.68;63.90;95688.22;4373462;32;20679;-73
2021/06/18 04:11:28;;;;;;;5.47;3.70;;;;;;;20.75;63.48;95691.84;4365754;32;20274;-73
2021/06/18 04:13:53;;;;;;;4.47;3.47;;;;;;;20.80;63.19;95694.00;4359439;32;20295;-72
2021/06/18 04:16:21;;;;;;;5.30;3.45;;;;;;;20.93;62.24;95690.91;4373400;32;20536;-72
2021/06/18 04:18:48;;;;;;;7.78;3.92;;;;;;;20.87;62.52;95696.81;4373029;32;20550;-74
2021/06/18 04:21:17;;;;;;;4.95;3.70;;;;;;;20.95;63.11;95704.72;4373101;32;20246;-74
2021/06/18 04:23:42;;;;;;;7.57;3.58;;;;;;;20.91;63.06;95712.16;4359335;32;20231;-73
2021/06/18 04:26:08;;;;;;;6.53;3.77;;;;;;;21.07;63.44;95708.72;4372718;32;20685;-73
2021/06/18 04:28:34;;;;;;;5.63;3.60;;;;;;;21.03;62.68;95712.66;4373033;32;20649;-73
2021/06/18 04:31:00;;;;;;;5.20;3.37;;;;;;;21.12;62.90;95721.38;4373015;32;20327;-72
2021/06/18 04:33:26;;;;;;;7.40;3.60;;;;;;;21.07;62.06;95718.41;4359170;32;20271;-72
2021/06/18 04:35:52;;;;;;;5.07;3.45;;;;;;;21.12;62.29;95718.75;4372933;32;20302;-74
2021/06/18 04:38:17;;;;;;;5.80;3.28;;;;;;;21.17;63.94;95712.03;4372920;32;20404;-73
2021/06/18 04:40:43;;;;;;;4.37;2.90;;;;;;;21.26;63.95;95718.09;4358164;32;20227;-72
2021/06/18 04:43:08;;;;;;;9.57;3.50;;;;;;;21.29;62.25;95722.22;4373671;32;20227;-75
2021/06/18 04:45:34;;;;;;;7.77;3.53;;;;;;;21.32;61.14;95722.72;4373181;32;20631;-77
2021/06/18 04:47:59;;;;;;;7.33;3.40;;;;;;;21.46;62.11;95724.72;4372913;32;20269;-75
2021/06/18 04:50:26;;;;;;;5.80;3.12;;;;;;;21.42;60.54;95723.41;4372850;32;20250;-75
2021/06/18 04:52:52;;;;;;;6.37;3.12;;;;;;;21.56;60.41;95729.03;4373089;32;20235;-72
2021/06/18 04:55:18;;;;;;;9.25;3.03;;;;;;;21.59;60.06;95721.59;4372611;32;20223;-72
2021/06/18 04:57:44;;;;;;;4.65;2.87;;;;;;;21.60;60.02;95727.69;4372320;32;20247;-73
2021/06/18 05:00:11;;;;;;;6.00;2.92;;;;;;;21.73;59.78;95720.94;4372892;32;20231;-72
2021/06/18 05:02:36;;;;;;;4.00;2.65;;;;;;;21.63;59.69;95725.56;4372656;32;20223;-72
2021/06/18 05:05:02;;;;;;;7.60;3.10;;;;;;;21.72;60.98;95731.63;4358770;32;20249;-72
2021/06/18 05:07:29;;;;;;;5.60;3.12;;;;;;;21.72;59.74;95726.38;4372196;32;20543;-72
2021/06/18 05:09:54;;;;;;;6.22;2.95;;;;;;;21.70;60.12;95725.72;4371977;32;20581;-72
2021/06/18 05:12:20;;;;;;;11.45;3.00;;;;;;;21.79;59.90;95727.34;4372140;32;21007;-72
2021/06/18 05:14:46;;;;;;;4.27;2.70;;;;;;;21.88;59.09;95723.72;4372169;32;20226;-72
2021/06/18 05:17:12;;;;;;;5.25;2.60;;;;;;;21.95;59.03;95724.69;4372038;32;20228;-73
2021/06/18 05:19:37;;;;;;;6.13;2.47;;;;;;;22.09;59.96;95725.00;4372295;32;20301;-73
2021/06/18 05:22:03;;;;;;;5.07;2.20;;;;;;;22.15;59.22;95729.62;4372445;32;20220;-73
2021/06/18 05:24:30;;;;;;;4.43;2.30;;;;;;;22.24;58.65;95725.97;4372246;32;20289;-74
2021/06/18 05:26:56;;;;;;;3.92;2.30;;;;;;;22.32;58.72;95715.41;4372138;32;20235;-75
2021/06/18 05:29:21;;;;;;;5.43;2.80;;;;;;;22.37;58.48;95721.00;4372498;32;20254;-73
2021/06/18 05:31:46;;;;;;;5.43;2.70;;;;;;;22.39;58.21;95718.16;4372268;32;20215;-74
2021/06/18 05:34:12;;;;;;;6.43;2.60;;;;;;;22.46;57.99;95712.03;4372462;32;20271;-74
2021/06/18 05:36:39;;;;;;;4.47;2.60;;;;;;;22.63;57.74;95714.62;4372264;32;20231;-74
2021/06/18 05:39:05;;;;;;;5.25;2.40;;;;;;;22.73;57.27;95728.44;4358156;32;20246;-74
2021/06/18 05:41:31;;;;;;;4.45;2.47;;;;;;;22.85;56.38;95727.03;4357407;32;20263;-74
2021/06/18 05:43:57;;;;;;;4.97;2.60;;;;;;;22.91;56.81;95731.66;4372183;32;20525;-74
2021/06/18 05:46:22;;;;;;;5.32;2.60;;;;;;;23.06;56.90;95723.81;4372130;32;20292;-74
2021/06/18 05:48:47;;;;;;;5.27;2.50;;;;;;;23.28;57.88;95734.56;4372338;32;20223;-74
2021/06/18 05:51:13;;;;;;;4.75;2.42;;;;;;;23.23;56.21;95731.63;4372752;32;20226;-74
2021/06/18 05:53:38;;;;;;;7.47;2.80;;;;;;;23.26;55.81;95728.66;4375438;32;20266;-74
2021/06/18 05:56:04;;;;;;;4.43;2.37;;;;;;;23.43;55.85;95727.50;4361224;32;20254;-74
2021/06/18 05:58:31;;;;;;;6.62;2.30;;;;;;;23.46;55.31;95727.16;4375322;32;20602;-74
2021/06/18 06:00:56;;;;;;;4.97;2.62;;;;;;;23.54;54.87;95731.56;4374864;32;20227;-74
2021/06/18 06:03:22;;;;;;;5.03;2.77;;;;;;;23.63;54.69;95733.16;4375472;32;20253;-75
2021/06/18 06:05:48;;;;;;;4.50;2.40;;;;;;;23.86;55.84;95735.78;4373715;32;20299;-73
2021/06/18 06:08:14;;;;;;;8.27;2.53;;;;;;;24.00;54.62;95729.72;4359904;32;20285;-74
2021/06/18 06:10:40;;;;;;;5.47;2.50;;;;;;;24.19;53.30;95725.72;4368593;32;20758;-73
2021/06/18 06:13:06;;;;;;;8.30;2.10;;;;;;;24.22;51.56;95725.34;4375009;32;20268;-72
2021/06/18 06:15:32;;;;;;;5.68;2.33;;;;;;;24.39;51.89;95723.34;4361019;32;20231;-73
2021/06/18 06:17:58;;;;;;;5.15;2.92;;;;;;;24.58;52.04;95714.03;4360955;32;20598;-74
2021/06/18 06:20:24;;;;;;;4.07;2.53;;;;;;;24.76;52.56;95719.75;4375121;32;20231;-73
2021/06/18 06:22:49;;;;;;;5.00;2.27;;;;;;;24.84;51.39;95724.13;4374807;32;20291;-74
2021/06/18 06:25:14;;;;;;;5.97;2.23;;;;;;;24.69;51.39;95731.28;4374615;32;20525;-74
2021/06/18 06:27:40;;;;;;;7.37;2.50;;;;;;;24.83;50.42;95722.50;4374599;32;20318;-73
2021/06/18 06:30:06;;;;;;;3.67;2.33;;;;;;;24.89;51.64;95724.41;4374894;32;20253;-73
2021/06/18 06:32:34;;;;;;;6.72;2.60;;;;;;;24.82;50.11;95724.31;4374834;32;20250;-73
2021/06/18 06:35:00;;;;;;;4.35;2.00;;;;;;;24.86;50.12;95724.78;4374642;32;20676;-74
2021/06/18 06:37:25;;;;;;;7.05;2.33;;;;;;;24.84;50.59;95732.06;4374099;32;20245;-74
2021/06/18 06:39:51;;;;;;;7.27;2.03;;;;;;;24.96;51.19;95733.25;4374657;32;20255;-74
2021/06/18 06:42:16;;;;;;;5.25;2.65;;;;;;;25.09;50.67;95728.09;4374032;32;20227;-74
2021/06/18 06:44:42;;;;;;;6.80;2.40;;;;;;;25.56;49.99;95729.41;4374471;32;20227;-74
2021/06/18 06:47:08;;;;;;;4.03;2.43;;;;;;;25.99;53.00;95733.84;4374285;32;20671;-74
2021/06/18 06:49:35;;;;;;;5.18;2.30;;;;;;;26.08;51.15;95738.00;4374392;32;20291;-74
2021/06/18 06:52:01;;;;;;;5.40;2.42;;;;;;;26.64;51.27;95731.84;4374412;32;20231;-74
2021/06/18 06:54:27;;;;;;;5.30;2.30;;;;;;;26.75;52.09;95744.56;4374019;32;20285;-74
2021/06/18 06:56:52;;;;;;;4.30;2.50;;;;;;;26.94;47.19;95740.34;4374043;32;20285;-74
2021/06/18 06:59:18;;;;;;;4.70;2.47;;;;;;;27.43;49.11;95739.28;4374099;32;20302;-74
2021/06/18 07:01:44;;;;;;;4.70;2.50;;;;;;;27.52;48.80;95731.94;4374328;32;20223;-75
2021/06/18 07:04:09;;;;;;;8.82;2.70;;;;;;;27.40;47.26;95729.03;4360059;32;20559;-75
2021/06/18 07:06:38;;;;;;;8.73;2.80;;;;;;;27.38;45.64;95728.44;4374168;32;20283;-74
2021/06/18 07:09:04;;;;;;;4.57;2.62;;;;;;;27.62;47.61;95725.16;4373964;32;20548;-74
2021/06/18 07:11:29;;;;;;;5.00;2.80;;;;;;;27.68;46.16;95732.34;4374147;32;20264;-75
2021/06/18 07:13:54;;;;;;;5.40;3.00;;;;;;;27.14;45.14;95730.59;4374617;32;20291;-74
2021/06/18 07:16:20;;;;;;;6.40;2.83;;;;;;;27.40;47.87;95737.84;4360368;32;20270;-74
2021/06/18 07:18:45;;;;;;;6.70;2.97;;;;;;;27.27;46.03;95740.47;4373920;32;20245;-74
2021/06/18 07:21:11;;;;;;;5.67;2.70;;;;;;;27.37;46.73;95742.75;4373901;32;20254;-74
2021/06/18 07:23:38;;;;;;;11.20;2.93;;;;;;;27.43;47.28;95748.06;4374331;32;20612;-74
2021/06/18 07:26:03;;;;;;;5.68;2.70;;;;;;;28.02;44.30;95746.50;4374069;32;20232;-74
2021/06/18 07:28:29;;;;;;;7.90;2.77;;;;;;;28.38;48.15;95745.28;4373825;32;20251;-75
2021/06/18 07:30:54;;;;;;;7.30;2.90;;;;;;;28.34;45.21;95747.50;4374037;32;20215;-75
2021/06/18 07:33:20;;;;;;;5.77;2.70;;;;;;;28.29;45.73;95752.62;4373946;32;20551;-74
2021/06/18 07:35:45;;;;;;;5.47;2.78;;;;;;;28.57;46.50;95756.91;4373581;32;20631;-75
2021/06/18 07:38:11;;;;;;;4.43;2.90;;;;;;;28.49;43.66;95743.81;4373591;32;20346;-74
2021/06/18 07:40:37;;;;;;;6.07;2.95;;;;;;;28.57;45.61;95744.41;4374130;32;20220;-74
2021/06/18 07:43:03;;;;;;;6.27;3.17;;;;;;;28.16;42.33;95745.47;4375061;32;20554;-75
2021/06/18 07:45:29;;;;;;;4.13;2.80;;;;;;;28.64;44.28;95739.87;4375328;32;20266;-75
2021/06/18 07:47:55;;;;;;;4.90;3.08;;;;;;;28.57;45.59;95743.59;4361111;32;20291;-76
2021/06/18 07:50:21;;;;;;;8.73;3.40;;;;;;;28.31;44.56;95742.59;4374274;32;20258;-76
2021/06/18 07:52:46;;;;;;;4.57;2.90;;;;;;;28.61;43.87;95745.63;4373355;32;20228;-74
2021/06/18 07:55:17;;;;;;;5.53;3.20;;;;;;;28.59;43.70;95737.03;4373047;32;20233;-75
2021/06/18 07:57:44;;;;;;;5.47;3.17;;;;;;;28.37;43.16;95740.94;4373539;32;20251;-74
2021/06/18 08:00:10;;;;;;;7.85;3.45;;;;;;;28.41;49.09;95744.88;4373449;32;20235;-74
2021/06/18 08:02:36;;;;;;;9.98;3.55;;;;;;;28.17;45.27;95735.63;4359879;32;20810;-75
2021/06/18 08:05:03;;;;;;;4.95;3.15;;;;;;;28.60;45.14;95738.66;4373338;32;20222;-75
2021/06/18 08:07:28;;;;;;;6.95;2.87;;;;;;;28.91;44.64;95739.78;4373397;32;20294;-76
2021/06/18 08:09:54;;;;;;;5.13;2.90;;;;;;;29.19;46.29;95739.47;4373500;32;20254;-75
2021/06/18 08:12:21;;;;;;;4.95;3.25;;;;;;;29.21;46.38;95733.91;4372824;32;20288;-76
2021/06/18 08:14:47;;;;;;;5.90;3.50;;;;;;;28.99;46.01;95736.91;4372929;32;20262;-74
2021/06/18 08:17:13;;;;;;;9.57;3.60;;;;;;;28.88;48.33;95742.84;4359183;32;20285;-74
2021/06/18 08:19:38;;;;;;;8.63;3.27;;;;;;;28.59;45.99;95736.19;4373429;32;20725;-74
2021/06/18 08:22:05;;;;;;;8.73;3.47;;;;;;;28.61;46.45;95737.62;4373348;32;20227;-75
2021/06/18 08:24:30;;;;;;;5.55;3.42;;;;;;;28.78;44.65;95746.00;4373132;32;20239;-75
2021/06/18 08:26:56;;;;;;;5.67;3.70;;;;;;;28.98;45.90;95739.75;4372731;32;20253;-75
2021/06/18 08:29:21;;;;;;;5.97;3.17;;;;;;;29.09;45.90;95745.25;4359638;32;20223;-74
2021/06/18 08:31:48;;;;;;;8.60;3.90;;;;;;;29.27;43.48;95741.91;4373277;32;20643;-74
2021/06/18 08:34:13;;;;;;;5.00;3.60;;;;;;;29.21;43.11;95740.06;4359555;32;20284;-74
2021/06/18 08:36:39;;;;;;;6.33;3.50;;;;;;;29.68;43.62;95743.31;4372818;32;20227;-74
2021/06/18 08:39:05;;;;;;;6.70;3.30;;;;;;;29.40;43.63;95744.47;4372739;32;20873;-74
2021/06/18 08:41:31;;;;;;;6.60;3.53;;;;;;;29.97;45.97;95741.84;4372713;32;20274;-73
2021/06/18 08:43:56;;;;;;;8.13;3.57;;;;;;;29.84;43.74;95732.09;4373232;32;20539;-74
2021/06/18 08:46:22;;;;;;;8.27;3.40;;;;;;;29.90;42.65;95733.06;4372442;32;20615;-75
2021/06/18 08:48:49;;;;;;;6.17;3.40;;;;;;;30.05;44.32;95738.91;4372434;32;20243;-74
2021/06/18 08:51:14;;;;;;;7.10;3.70;;;;;;;30.19;43.24;95736.16;4372728;32;20227;-74
2021/06/18 08:53:42;;;;;;;10.18;3.60;;;;;;;30.29;41.70;95731.09;4372623;32;20285;-74
2021/06/18 08:56:09;;;;;;;5.40;3.73;;;;;;;29.97;41.97;95741.03;4372182;32;20232;-74
2021/06/18 08:58:35;;;;;;;11.48;3.67;;;;;;;30.07;41.09;95742.19;4372348;32;20266;-74
2021/06/18 09:01:00;;;;;;;4.78;3.20;;;;;;;30.03;44.02;95740.97;4372790;32;20231;-74
2021/06/18 09:03:35;;;;;;;7.15;3.40;;;;;;;30.16;43.21;95739.22;4372613;32;20306;-74
2021/06/18 09:06:02;;;;;;;6.05;3.67;;;;;;;29.80;42.40;95740.75;4372292;32;20590;-74
2021/06/18 09:08:27;;;;;;;5.70;3.58;;;;;;;29.60;44.53;95746.25;4358958;32;20292;-74
2021/06/18 09:10:53;;;;;;;10.30;3.40;;;;;;;29.87;42.02;95742.34;4372661;32;20623;-75
2021/06/18 09:13:20;;;;;;;6.62;3.67;;;;;;;30.10;43.18;95741.72;4358993;32;20282;-74
2021/06/18 09:15:50;;;;;;;7.28;3.60;;;;;;;30.07;42.70;95733.31;4372406;32;20257;-74
2021/06/18 09:18:27;;;;;;;12.00;3.60;;;;;;;30.07;45.20;95736.84;4372188;32;20261;-73
2021/06/18 09:20:55;;;;;;;6.25;3.90;;;;;;;30.13;44.80;95733.28;4372481;32;20593;-73
2021/06/18 09:23:24;;;;;;;8.18;3.72;;;;;;;30.07;43.52;95728.84;4372372;32;20650;-74
2021/06/18 09:26:17;;;;;;;6.20;3.40;;;;;;;30.43;43.23;95732.59;4372083;32;20241;-74
2021/06/18 09:28:55;;;;;;;8.52;3.62;;;;;;;30.61;43.15;95742.50;4372207;32;20242;-76
2021/06/18 09:31:22;;;;;;;5.57;3.55;;;;;;;30.69;41.89;95736.03;4372973;32;20342;-75
2021/06/18 09:33:47;;;;;;;5.45;3.80;;;;;;;30.84;40.09;95734.63;4372367;32;20286;-74
2021/06/18 09:36:12;;;;;;;7.33;3.80;;;;;;;30.94;42.11;95736.78;4358597;32;20261;-75
2021/06/18 09:38:40;;;;;;;6.03;3.40;;;;;;;31.09;39.99;95737.22;4372498;32;20278;-77
2021/06/18 09:41:06;;;;;;;6.53;3.72;;;;;;;31.33;42.45;95727.47;4371946;32;20227;-76
2021/06/18 09:43:42;;;;;;;7.15;3.65;;;;;;;31.35;39.17;95727.22;4372375;32;20228;-76
2021/06/18 09:46:08;;;;;;;9.10;3.53;;;;;;;31.44;42.03;95722.38;4372102;32;20249;-74
2021/06/18 09:48:34;;;;;;;6.03;3.40;;;;;;;31.48;40.33;95724.38;4373301;32;20220;-77
2021/06/18 09:51:00;;;;;;;11.43;3.45;;;;;;;31.60;39.45;95723.59;4372834;32;20297;-75
2021/06/18 09:53:28;;;;;;;12.57;4.00;;;;;;;31.50;38.56;95722.28;4372322;32;20288;-75
2021/06/18 09:56:04;;;;;;;7.93;3.40;;;;;;;31.34;41.34;95722.94;4371902;32;20231;-76
2021/06/18 09:58:34;;;;;;;8.85;3.85;;;;;;;31.27;42.11;95727.53;4372799;32;20274;-75
2021/06/18 10:01:20;;;;;;;6.83;3.80;;;;;;;31.21;40.63;95725.75;4372565;32;20318;-76
2021/06/18 10:04:02;;;;;;;7.45;3.35;;;;;;;31.41;42.00;95720.97;4373400;32;20258;-74
2021/06/18 10:06:28;;;;;;;7.33;3.77;;;;;;;31.48;38.23;95719.03;4371900;32;20227;-75
2021/06/18 10:08:55;;;;;;;8.27;3.50;;;;;;;31.43;37.88;95726.91;4358541;32;20258;-76
2021/06/18 10:11:21;;;;;;;7.35;3.90;;;;;;;31.51;36.53;95723.91;4357953;32;20251;-75
2021/06/18 10:13:47;;;;;;;6.00;3.80;;;;;;;31.60;40.01;95712.88;4372124;32;20245;-76
2021/06/18 10:16:16;;;;;;;5.80;3.53;;;;;;;31.71;38.85;95720.94;4371789;32;20223;-75
2021/06/18 10:18:42;;;;;;;5.93;3.30;;;;;;;31.92;38.74;95719.59;4371482;32;20740;-75
2021/06/18 10:21:07;;;;;;;5.07;3.50;;;;;;;31.90;37.45;95716.34;4371935;32;20227;-76
2021/06/18 10:23:33;;;;;;;5.17;3.33;;;;;;;31.89;39.27;95712.03;4358367;32;20219;-75
2021/06/18 10:26:01;;;;;;;9.70;3.70;;;;;;;31.87;36.36;95706.09;4358258;32;20312;-76
2021/06/18 10:28:30;;;;;;;9.10;3.80;;;;;;;31.86;37.55;95706.31;4358276;32;20227;-75
2021/06/18 10:30:56;;;;;;;5.93;3.45;;;;;;;31.81;39.24;95707.78;4372026;32;20242;-75
2021/06/18 10:33:34;;;;;;;5.75;3.50;;;;;;;31.97;37.50;95708.19;4358245;32;20268;-75
2021/06/18 10:36:04;;;;;;;4.15;3.20;;;;;;;32.19;38.03;95709.25;4371533;32;20402;-75
2021/06/18 10:38:31;;;;;;;4.97;3.12;;;;;;;32.33;36.30;95703.63;4372293;32;20312;-75
2021/06/18 10:41:00;;;;;;;8.02;3.70;;;;;;;32.52;32.22;95702.47;4376714;32;20276;-74
2021/06/18 10:43:38;;;;;;;8.75;3.65;;;;;;;32.60;34.54;95698.62;4375291;32;20265;-75
2021/06/18 10:46:11;;;;;;;6.87;3.87;;;;;;;32.63;35.70;95703.50;4360677;32;20250;-74
2021/06/18 10:48:57;;;;;;;7.00;3.60;;;;;;;32.57;34.39;95704.47;4360803;32;20227;-75
2021/06/18 10:51:32;;;;;;;9.93;3.78;;;;;;;32.56;34.45;95703.66;4374471;32;20231;-75
2021/06/18 10:54:04;;;;;;;6.53;3.45;;;;;;;32.72;33.93;95699.41;4374477;32;20641;-75
2021/06/18 10:56:55;;;;;;;5.20;3.28;;;;;;;32.47;34.54;95705.84;4373920;32;20334;-75
2021/06/18 10:59:32;;;;;;;9.88;3.60;;;;;;;32.85;37.68;95709.03;4374361;32;20721;-75
2021/06/18 11:01:58;;;;;;;4.80;3.30;;;;;;;33.04;32.39;95704.34;4374244;32;20586;-75
2021/06/18 11:04:40;;;;;;;8.73;3.55;;;;;;;32.98;31.47;95698.88;4374378;32;20328;-75
2021/06/18 11:07:23;;;;;;;6.35;3.30;;;;;;;33.17;34.63;95696.84;4373746;32;20227;-75
2021/06/18 11:09:49;;;;;;;6.97;3.40;;;;;;;32.84;31.93;95684.09;4374261;32;20619;-75
2021/06/18 11:12:36;;;;;;;7.18;3.53;;;;;;;32.42;31.46;95687.00;4373923;32;20521;-75
2021/06/18 11:15:06;;;;;;;7.00;3.70;;;;;;;32.40;33.50;95686.41;4374076;32;20290;-75
2021/06/18 11:17:44;;;;;;;6.85;3.58;;;;;;;32.36;36.37;95690.56;4373448;32;20625;-75
2021/06/18 11:20:11;;;;;;;6.18;3.60;;;;;;;32.33;32.96;95685.69;4373576;32;20278;-75
2021/06/18 11:22:40;;;;;;;6.03;3.72;;;;;;;32.51;36.56;95690.12;4374052;32;20562;-75
2021/06/18 11:25:44;;;;;;;7.18;3.87;;;;;;;32.55;33.70;95691.28;4373874;32;20223;-75
2021/06/18 11:28:47;;;;;;;5.30;3.30;;;;;;;32.63;32.81;95688.25;4373695;32;20297;-75
2021/06/18 11:31:21;;;;;;;10.18;3.35;;;;;;;32.45;32.01;95686.53;4373716;32;20211;-75
2021/06/18 11:33:53;;;;;;;6.97;3.42;;;;;;;32.41;32.49;95685.38;4360470;32;20555;-75
2021/06/18 11:36:46;;;;;;;4.50;3.10;;;;;;;32.66;31.52;95682.38;4374855;32;20393;-72